createdAt,value
2023-04-20T00:00:57.909Z,7.84
2023-04-20T00:03:26.573Z,7.87
2023-04-20T00:05:54.251Z,7.65
2023-04-20T00:08:21.393Z,7.84
2023-04-20T00:10:48.430Z,7.87
2023-04-20T00:13:15.471Z,8.07
2023-04-20T00:15:42.571Z,8.12
2023-04-20T00:18:10.008Z,7.96
2023-04-20T00:20:37.208Z,7.83
2023-04-20T00:23:04.246Z,7.89
2023-04-20T00:25:32.150Z,8.22
2023-04-20T00:28:00.273Z,7.62
2023-04-20T00:30:27.385Z,7.99
2023-04-20T00:32:54.474Z,8.01
2023-04-20T00:35:21.636Z,8.11
2023-04-20T00:37:48.754Z,8.07
2023-04-20T00:40:15.956Z,7.89
2023-04-20T00:42:43.032Z,8.33
2023-04-20T00:45:10.972Z,8.14
2023-04-20T00:47:38.887Z,8.44
2023-04-20T00:50:07.680Z,8.40
2023-04-20T00:52:34.968Z,8.34
2023-04-20T00:55:06.144Z,8.37
2023-04-20T00:57:33.892Z,8.26
2023-04-20T01:00:01.494Z,8.40
2023-04-20T01:02:28.884Z,8.20
2023-04-20T01:04:56.526Z,8.19
2023-04-20T01:07:23.591Z,8.41
2023-04-20T01:09:50.896Z,8.34
2023-04-20T01:12:17.997Z,8.49
2023-04-20T01:14:45.091Z,8.33
2023-04-20T01:17:13.536Z,8.06
2023-04-20T01:19:42.045Z,8.53
2023-04-20T01:22:12.748Z,8.31
2023-04-20T01:24:39.867Z,8.32
2023-04-20T01:27:06.918Z,8.31
2023-04-20T01:29:34.617Z,8.51
2023-04-20T01:32:01.806Z,9.08
2023-04-20T01:34:28.866Z,8.92
2023-04-20T01:36:56.138Z,9.05
2023-04-20T01:39:23.541Z,9.08
2023-04-20T01:41:50.708Z,8.70
2023-04-20T01:44:18.036Z,8.95
2023-04-20T01:46:45.449Z,9.20
2023-04-20T01:49:12.504Z,9.04
2023-04-20T01:51:39.571Z,8.78
2023-04-20T01:54:06.663Z,8.97
2023-04-20T01:56:33.669Z,8.64
2023-04-20T01:59:00.758Z,8.52
2023-04-20T02:01:27.859Z,8.91
2023-04-20T02:03:55.001Z,8.72
2023-04-20T02:06:22.034Z,9.09
2023-04-20T02:08:49.137Z,8.76
2023-04-20T02:11:16.271Z,8.91
2023-04-20T02:13:43.454Z,9.20
2023-04-20T02:16:10.794Z,9.03
2023-04-20T02:18:37.943Z,9.05
2023-04-20T02:21:05.768Z,9.29
2023-04-20T02:23:32.867Z,8.81
2023-04-20T02:25:59.946Z,9.01
2023-04-20T02:28:27.030Z,8.90
2023-04-20T02:30:54.153Z,8.94
2023-04-20T02:33:21.602Z,8.38
2023-04-20T02:35:49.106Z,8.84
2023-04-20T02:38:16.581Z,9.17
2023-04-20T02:40:43.649Z,8.87
2023-04-20T02:43:10.983Z,8.21
2023-04-20T02:45:38.220Z,9.11
2023-04-20T02:48:06.335Z,8.30
2023-04-20T02:50:33.559Z,8.84
2023-04-20T02:53:00.665Z,8.39
2023-04-20T02:55:27.741Z,8.85
2023-04-20T02:57:55.152Z,8.26
2023-04-20T03:00:22.441Z,8.27
2023-04-20T03:02:49.600Z,8.69
2023-04-20T03:05:17.071Z,8.35
2023-04-20T03:07:44.503Z,8.42
2023-04-20T03:10:12.390Z,8.32
2023-04-20T03:12:39.460Z,7.88
2023-04-20T03:15:07.877Z,8.42
2023-04-20T03:17:34.995Z,8.33
2023-04-20T03:20:02.069Z,8.22
2023-04-20T03:22:29.101Z,8.50
2023-04-20T03:24:56.375Z,8.54
2023-04-20T03:27:23.415Z,8.50
2023-04-20T03:29:50.585Z,8.75
2023-04-20T03:32:17.666Z,8.35
2023-04-20T03:34:44.961Z,8.70
2023-04-20T03:37:13.971Z,8.73
2023-04-20T03:39:41.277Z,8.55
2023-04-20T03:42:08.337Z,8.77
2023-04-20T03:44:35.613Z,8.57
2023-04-20T03:47:02.790Z,8.84
2023-04-20T03:49:30.429Z,8.23
2023-04-20T03:51:57.668Z,8.40
2023-04-20T03:54:25.186Z,8.41
2023-04-20T03:56:52.360Z,8.47
2023-04-20T03:59:22.463Z,8.39
2023-04-20T04:01:49.525Z,8.69
2023-04-20T04:04:16.893Z,8.51
2023-04-20T04:06:45.503Z,8.88
2023-04-20T04:09:12.629Z,8.85
2023-04-20T04:11:39.724Z,9.27
2023-04-20T04:14:06.871Z,8.94
2023-04-20T04:16:34.001Z,8.72
2023-04-20T04:19:01.312Z,8.47
2023-04-20T04:21:28.757Z,8.82
2023-04-20T04:23:55.883Z,8.63
2023-04-20T04:26:24.628Z,8.86
2023-04-20T04:28:52.502Z,9.03
2023-04-20T04:31:21.375Z,8.69
2023-04-20T04:33:49.485Z,9.05
2023-04-20T04:36:17.477Z,8.98
2023-04-20T04:38:44.731Z,9.31
2023-04-20T04:41:12.835Z,9.37
2023-04-20T04:43:43.295Z,9.20
2023-04-20T04:46:13.162Z,9.33
2023-04-20T04:48:42.321Z,9.72
2023-04-20T04:51:09.847Z,9.69
2023-04-20T04:53:37.130Z,9.76
2023-04-20T04:56:06.559Z,9.86
2023-04-20T04:58:33.645Z,10.03
2023-04-20T05:01:00.754Z,9.59
2023-04-20T05:03:27.899Z,9.86
2023-04-20T05:05:55.132Z,9.62
2023-04-20T05:08:24.389Z,9.48
2023-04-20T05:10:51.420Z,8.91
2023-04-20T05:13:26.836Z,9.27
2023-04-20T05:15:53.929Z,9.86
2023-04-20T05:18:21.053Z,9.27
2023-04-20T05:20:48.280Z,9.76
2023-04-20T05:23:15.506Z,9.33
2023-04-20T05:25:43.136Z,9.72
2023-04-20T05:28:10.380Z,9.49
2023-04-20T05:30:37.645Z,9.04
2023-04-20T05:33:04.864Z,9.78
2023-04-20T05:35:32.060Z,10.12
2023-04-20T05:38:02.382Z,9.45
2023-04-20T05:40:29.560Z,9.86
2023-04-20T05:42:59.184Z,9.48
2023-04-20T05:45:26.778Z,9.90
2023-04-20T05:47:57.738Z,9.79
2023-04-20T05:50:26.697Z,9.60
2023-04-20T05:52:54.217Z,9.58
2023-04-20T05:55:22.830Z,10.30
2023-04-20T05:57:52.404Z,10.45
2023-04-20T06:00:21.445Z,10.30
2023-04-20T06:02:49.230Z,9.99
2023-04-20T06:05:16.499Z,9.73
2023-04-20T06:07:43.649Z,9.94
2023-04-20T06:10:11.551Z,10.30
2023-04-20T06:12:38.678Z,9.48
2023-04-20T06:15:08.305Z,9.49
2023-04-20T06:17:40.378Z,9.25
2023-04-20T06:20:12.122Z,9.87
2023-04-20T06:22:49.139Z,9.76
2023-04-20T06:25:16.398Z,9.12
2023-04-20T06:27:43.689Z,9.79
2023-04-20T06:30:11.825Z,10.37
2023-04-20T06:32:39.172Z,9.67
2023-04-20T06:35:08.429Z,10.01
2023-04-20T06:37:48.737Z,10.25
2023-04-20T06:40:16.340Z,10.72
2023-04-20T06:42:46.525Z,11.16
2023-04-20T06:45:48.048Z,11.02
2023-04-20T06:48:30.790Z,10.00
2023-04-20T06:50:59.070Z,10.48
2023-04-20T06:53:28.956Z,10.35
2023-04-20T06:55:56.514Z,10.03
2023-04-20T06:58:23.764Z,10.22
2023-04-20T07:00:50.990Z,9.85
2023-04-20T07:03:29.202Z,9.81
2023-04-20T07:05:58.552Z,10.47
2023-04-20T07:08:26.027Z,10.82
2023-04-20T07:10:53.219Z,10.45
2023-04-20T07:13:20.494Z,9.98
2023-04-20T07:15:55.414Z,10.94
2023-04-20T07:18:22.750Z,11.42
2023-04-20T07:20:50.242Z,10.23
2023-04-20T07:23:17.253Z,10.38
2023-04-20T07:25:47.721Z,9.87
2023-04-20T07:28:14.838Z,10.45
2023-04-20T07:30:53.749Z,10.63
2023-04-20T07:33:21.406Z,11.09
2023-04-20T07:35:51.828Z,11.22
2023-04-20T07:38:18.854Z,10.94
2023-04-20T07:40:49.732Z,10.18
2023-04-20T07:43:18.387Z,10.47
2023-04-20T07:45:45.870Z,10.54
2023-04-20T07:48:13.144Z,11.00
2023-04-20T07:50:43.469Z,10.26
2023-04-20T07:53:14.111Z,10.49
2023-04-20T07:55:41.357Z,9.96
2023-04-20T07:58:08.500Z,10.99
2023-04-20T08:00:38.842Z,10.74
2023-04-20T08:03:06.052Z,10.89
2023-04-20T08:05:33.716Z,11.78
2023-04-20T08:08:01.096Z,10.88
2023-04-20T08:10:28.273Z,10.71
2023-04-20T08:12:55.614Z,10.26
2023-04-20T08:15:22.873Z,10.53
2023-04-20T08:17:50.234Z,10.69
2023-04-20T08:20:17.543Z,10.85
2023-04-20T08:22:45.186Z,10.25
2023-04-20T08:25:12.264Z,10.28
2023-04-20T08:27:42.608Z,10.23
2023-04-20T08:30:13.479Z,10.34
2023-04-20T08:32:41.102Z,10.33
2023-04-20T08:35:08.658Z,10.25
2023-04-20T08:37:37.450Z,10.15
2023-04-20T08:40:05.719Z,10.09
2023-04-20T08:42:32.925Z,10.55
2023-04-20T08:44:59.993Z,10.86
2023-04-20T08:47:31.789Z,11.32
2023-04-20T08:50:00.008Z,11.05
2023-04-20T08:52:27.111Z,10.60
2023-04-20T08:54:57.588Z,10.48
2023-04-20T08:57:26.219Z,10.33
2023-04-20T08:59:53.803Z,10.44
2023-04-20T09:02:21.928Z,10.34
2023-04-20T09:04:49.885Z,11.22
2023-04-20T09:07:21.667Z,11.02
2023-04-20T09:10:01.490Z,11.57
2023-04-20T09:12:29.064Z,11.11
2023-04-20T09:14:57.164Z,11.03
2023-04-20T09:17:40.529Z,11.25
2023-04-20T09:20:09.032Z,11.14
2023-04-20T09:22:38.198Z,11.25
2023-04-20T09:25:20.035Z,11.42
2023-04-20T09:28:01.873Z,11.43
2023-04-20T09:30:38.433Z,11.18
2023-04-20T09:33:08.324Z,11.49
2023-04-20T09:35:36.771Z,11.11
2023-04-20T09:38:04.886Z,11.43
2023-04-20T09:40:33.624Z,11.45
2023-04-20T09:43:32.241Z,10.85
2023-04-20T09:45:59.886Z,11.66
2023-04-20T09:48:27.071Z,11.47
2023-04-20T09:50:55.396Z,12.05
2023-04-20T09:53:23.285Z,11.08
2023-04-20T09:55:51.914Z,12.47
2023-04-20T09:58:21.526Z,11.19
2023-04-20T10:00:49.823Z,11.56
2023-04-20T10:03:21.953Z,11.82
2023-04-20T10:05:51.165Z,12.19
2023-04-20T10:08:20.399Z,12.22
2023-04-20T10:10:52.129Z,12.04
2023-04-20T10:13:21.637Z,12.01
2023-04-20T10:15:48.881Z,13.01
2023-04-20T10:18:24.806Z,12.36
2023-04-20T10:21:04.275Z,13.62
2023-04-20T10:23:31.511Z,14.02
2023-04-20T10:26:01.230Z,13.17
2023-04-20T10:28:44.993Z,13.23
2023-04-20T10:31:15.237Z,14.45
2023-04-20T10:33:56.460Z,14.56
2023-04-20T10:36:34.347Z,13.04
2023-04-20T10:39:04.954Z,13.74
2023-04-20T10:41:34.280Z,14.73
2023-04-20T10:44:10.527Z,14.54
2023-04-20T10:46:37.779Z,14.15
2023-04-20T10:49:04.874Z,14.53
2023-04-20T10:51:32.369Z,14.09
2023-04-20T10:54:06.495Z,13.97
2023-04-20T10:56:51.838Z,14.14
2023-04-20T10:59:25.134Z,13.62
2023-04-20T11:01:54.011Z,13.88
2023-04-20T11:04:35.363Z,14.24
2023-04-20T11:07:13.307Z,14.21
2023-04-20T11:09:45.442Z,13.93
2023-04-20T11:12:14.554Z,13.27
2023-04-20T11:15:00.320Z,13.49
2023-04-20T11:17:39.236Z,14.01
2023-04-20T11:20:14.253Z,13.19
2023-04-20T11:22:43.518Z,13.76
2023-04-20T11:25:12.865Z,14.23
2023-04-20T11:27:41.277Z,14.21
2023-04-20T11:30:09.774Z,14.17
2023-04-20T11:32:38.126Z,14.33
2023-04-20T11:35:10.740Z,14.20
2023-04-20T11:37:51.772Z,14.60
2023-04-20T11:40:19.319Z,14.55
2023-04-20T11:42:46.544Z,14.99
2023-04-20T11:45:13.939Z,14.75
2023-04-20T11:47:43.746Z,14.42
2023-04-20T11:50:12.340Z,14.17
2023-04-20T11:52:39.728Z,14.73
2023-04-20T11:55:08.967Z,16.61
2023-04-20T11:57:39.033Z,15.48
2023-04-20T12:00:11.253Z,16.58
2023-04-20T12:02:38.611Z,16.69
2023-04-20T12:05:08.908Z,18.12
2023-04-20T12:07:37.975Z,15.36
2023-04-20T12:10:07.890Z,16.86
2023-04-20T12:12:42.191Z,16.40
2023-04-20T12:15:12.942Z,15.85
2023-04-20T12:17:40.050Z,17.23
2023-04-20T12:20:09.302Z,16.69
2023-04-20T12:22:36.761Z,16.74
2023-04-20T12:25:06.531Z,16.89
2023-04-20T12:27:34.022Z,16.99
2023-04-20T12:30:06.188Z,17.07
2023-04-20T12:32:33.768Z,17.23
2023-04-20T12:35:12.287Z,17.18
2023-04-20T12:40:08.723Z,16.19
2023-04-20T12:42:37.920Z,17.47
2023-04-20T12:45:07.679Z,17.33
2023-04-20T12:47:35.083Z,18.29
2023-04-20T12:50:03.365Z,18.26
2023-04-20T12:52:35.027Z,17.26
2023-04-20T12:55:07.546Z,17.16
2023-04-20T12:57:35.814Z,18.67
2023-04-20T13:00:04.853Z,19.14
2023-04-20T13:02:33.866Z,19.97
2023-04-20T13:05:04.581Z,20.50
2023-04-20T13:07:32.568Z,20.06
2023-04-20T13:10:01.337Z,21.91
2023-04-20T13:12:28.607Z,18.54
2023-04-20T13:14:55.841Z,18.79
2023-04-20T13:17:23.272Z,18.35
2023-04-20T13:19:50.651Z,19.19
2023-04-20T13:22:19.023Z,19.33
2023-04-20T13:24:46.686Z,18.91
2023-04-20T13:27:14.374Z,19.53
2023-04-20T13:29:41.653Z,19.07
2023-04-20T13:32:15.579Z,19.86
2023-04-20T13:34:43.052Z,19.25
2023-04-20T13:37:14.301Z,18.98
2023-04-20T13:39:41.685Z,19.54
2023-04-20T13:42:08.906Z,20.20
2023-04-20T13:44:36.350Z,20.38
2023-04-20T13:47:05.462Z,19.68
2023-04-20T13:49:32.609Z,20.22
2023-04-20T13:52:00.090Z,20.69
2023-04-20T13:54:27.191Z,20.99
2023-04-20T13:56:57.872Z,19.88
2023-04-20T13:59:24.969Z,19.40
2023-04-20T14:01:57.734Z,20.33
2023-04-20T14:04:24.922Z,20.16
2023-04-20T14:06:52.325Z,20.65
2023-04-20T14:09:20.038Z,20.26
2023-04-20T14:11:48.542Z,19.87
2023-04-20T14:14:18.500Z,21.46
2023-04-20T14:16:48.741Z,20.71
2023-04-20T14:19:16.212Z,20.19
2023-04-20T14:21:47.237Z,20.02
2023-04-20T14:24:14.648Z,20.76
2023-04-20T14:26:45.440Z,20.83
2023-04-20T14:29:12.718Z,20.19
2023-04-20T14:31:43.197Z,20.69
2023-04-20T14:34:10.356Z,20.07
2023-04-20T14:36:40.215Z,19.88
2023-04-20T14:39:09.402Z,18.39
2023-04-20T14:41:36.566Z,18.69
2023-04-20T14:44:05.020Z,18.57
2023-04-20T14:46:32.225Z,18.49
2023-04-20T14:48:59.364Z,18.68
2023-04-20T14:51:27.031Z,18.48
2023-04-20T14:53:54.077Z,18.60
2023-04-20T14:56:21.460Z,18.55
2023-04-20T14:58:48.581Z,18.72
2023-04-20T15:01:15.849Z,18.37
2023-04-20T15:03:43.436Z,18.73
2023-04-20T15:06:12.122Z,17.79
2023-04-20T15:08:39.272Z,18.75
2023-04-20T15:11:12.879Z,18.36
2023-04-20T15:13:42.224Z,18.64
2023-04-20T15:16:09.474Z,17.88
2023-04-20T15:18:36.712Z,18.62
2023-04-20T15:21:04.333Z,18.65
2023-04-20T15:23:31.527Z,19.25
2023-04-20T15:25:58.723Z,18.84
2023-04-20T15:28:31.685Z,18.42
2023-04-20T15:31:07.818Z,18.36
2023-04-20T15:33:35.037Z,18.61
2023-04-20T15:36:02.512Z,18.38
2023-04-20T15:38:29.852Z,18.20
2023-04-20T15:40:57.039Z,18.22
2023-04-20T15:43:24.565Z,18.12
2023-04-20T15:45:51.710Z,18.44
2023-04-20T15:48:21.671Z,18.47
2023-04-20T15:50:53.066Z,19.27
2023-04-20T15:53:22.128Z,19.28
2023-04-20T15:55:49.295Z,19.47
2023-04-20T15:58:19.342Z,19.59
2023-04-20T16:00:46.462Z,19.44
2023-04-20T16:03:14.933Z,20.09
2023-04-20T16:05:42.173Z,19.60
2023-04-20T16:08:09.338Z,19.57
2023-04-20T16:10:37.872Z,19.15
2023-04-20T16:13:05.015Z,19.19
2023-04-20T16:15:32.290Z,18.69
2023-04-20T16:17:59.992Z,19.09
2023-04-20T16:20:27.448Z,19.06
2023-04-20T16:22:54.483Z,19.30
2023-04-20T16:25:24.282Z,18.98
2023-04-20T16:27:52.208Z,19.30
2023-04-20T16:30:19.868Z,19.30
2023-04-20T16:32:47.068Z,19.48
2023-04-20T16:35:17.031Z,18.33
2023-04-20T16:37:44.859Z,17.86
2023-04-20T16:40:12.089Z,18.51
2023-04-20T16:42:39.223Z,18.76
2023-04-20T16:45:07.609Z,18.47
2023-04-20T16:47:36.965Z,18.73
2023-04-20T16:50:07.150Z,18.69
2023-04-20T16:52:35.485Z,18.70
2023-04-20T16:55:02.909Z,19.46
2023-04-20T16:57:36.323Z,19.65
2023-04-20T17:00:08.863Z,18.96
2023-04-20T17:02:37.481Z,18.10
2023-04-20T17:05:06.737Z,19.40
2023-04-20T17:07:33.890Z,18.37
2023-04-20T17:10:01.078Z,18.26
2023-04-20T17:12:31.487Z,17.95
2023-04-20T17:14:58.681Z,18.14
2023-04-20T17:17:28.877Z,17.79
2023-04-20T17:20:13.276Z,17.52
2023-04-20T17:22:40.872Z,17.73
2023-04-20T17:25:09.335Z,17.10
2023-04-20T17:27:42.006Z,17.49
2023-04-20T17:30:10.275Z,17.42
2023-04-20T17:32:40.380Z,17.33
2023-04-20T17:35:08.026Z,17.24
2023-04-20T17:37:36.548Z,17.00
2023-04-20T17:40:06.394Z,17.03
2023-04-20T17:42:33.639Z,16.71
2023-04-20T17:45:00.894Z,16.55
2023-04-20T17:47:28.556Z,16.41
2023-04-20T17:50:02.630Z,16.55
2023-04-20T17:52:30.428Z,16.34
2023-04-20T17:54:59.988Z,16.07
2023-04-20T17:57:27.992Z,16.13
2023-04-20T17:59:55.543Z,16.11
2023-04-20T18:02:25.205Z,16.00
2023-04-20T18:04:55.157Z,15.93
2023-04-20T18:07:24.610Z,15.45
2023-04-20T18:09:51.767Z,15.30
2023-04-20T18:12:19.006Z,15.13
2023-04-20T18:14:46.110Z,15.19
2023-04-20T18:17:13.261Z,15.18
2023-04-20T18:19:43.634Z,15.05
2023-04-20T18:22:10.890Z,14.88
2023-04-20T18:24:38.180Z,14.66
2023-04-20T18:27:05.367Z,14.50
2023-04-20T18:29:32.701Z,14.63
2023-04-20T18:32:01.312Z,14.81
2023-04-20T18:34:34.122Z,14.27
2023-04-20T18:37:01.412Z,13.91
2023-04-20T18:39:29.750Z,13.94
2023-04-20T18:41:56.818Z,13.68
2023-04-20T18:44:24.241Z,14.07
2023-04-20T18:46:51.365Z,13.75
2023-04-20T18:49:18.517Z,13.93
2023-04-20T18:51:45.733Z,13.86
2023-04-20T18:54:15.370Z,13.89
2023-04-20T18:56:42.674Z,14.18
2023-04-20T18:59:10.684Z,14.16
2023-04-20T19:01:40.565Z,13.85
2023-04-20T19:04:08.905Z,13.56
2023-04-20T19:06:36.521Z,13.37
2023-04-20T19:09:05.871Z,13.52
2023-04-20T19:11:43.115Z,13.48
2023-04-20T19:14:11.246Z,13.55
2023-04-20T19:16:38.921Z,13.26
2023-04-20T19:19:08.322Z,13.55
2023-04-20T19:21:37.340Z,13.81
2023-04-20T19:24:14.236Z,13.43
2023-04-20T19:26:41.664Z,13.73
2023-04-20T19:29:09.154Z,13.67
2023-04-20T19:31:40.109Z,13.68
2023-04-20T19:34:08.748Z,13.47
2023-04-20T19:36:36.201Z,12.99
2023-04-20T19:39:12.783Z,13.42
2023-04-20T19:41:42.975Z,13.33
2023-04-20T19:44:11.974Z,13.22
2023-04-20T19:46:40.497Z,13.31
2023-04-20T19:49:07.686Z,13.00
2023-04-20T19:51:34.822Z,13.04
2023-04-20T19:54:03.470Z,13.06
2023-04-20T19:56:31.152Z,13.71
2023-04-20T19:58:58.286Z,13.55
2023-04-20T20:01:25.456Z,13.79
2023-04-20T20:03:52.717Z,13.57
2023-04-20T20:06:21.567Z,13.74
2023-04-20T20:08:48.784Z,13.52
2023-04-20T20:11:15.897Z,13.47
2023-04-20T20:13:43.018Z,13.54
2023-04-20T20:16:10.389Z,13.42
2023-04-20T20:18:38.258Z,12.81
2023-04-20T20:21:05.427Z,12.52
2023-04-20T20:23:32.575Z,12.49
2023-04-20T20:25:59.780Z,12.30
2023-04-20T20:28:26.894Z,12.14
2023-04-20T20:30:54.159Z,12.10
2023-04-20T20:33:21.301Z,12.16
2023-04-20T20:35:48.590Z,12.05
2023-04-20T20:38:20.765Z,12.26
2023-04-20T20:40:53.354Z,12.14
2023-04-20T20:43:22.681Z,12.07
2023-04-20T20:45:49.741Z,12.06
2023-04-20T20:48:16.881Z,12.18
2023-04-20T20:50:44.138Z,11.99
2023-04-20T20:53:11.385Z,11.99
2023-04-20T20:55:38.605Z,11.97
2023-04-20T20:58:05.820Z,12.08
2023-04-20T21:00:33.480Z,12.22
2023-04-20T21:03:00.702Z,12.30
2023-04-20T21:05:27.964Z,12.13
2023-04-20T21:07:55.150Z,12.10
2023-04-20T21:10:22.279Z,12.24
2023-04-20T21:12:51.767Z,12.19
2023-04-20T21:15:18.891Z,12.10
2023-04-20T21:17:46.043Z,12.13
2023-04-20T21:20:13.387Z,12.30
2023-04-20T21:22:40.583Z,12.27
2023-04-20T21:25:08.252Z,11.99
2023-04-20T21:27:35.640Z,11.90
2023-04-20T21:30:03.309Z,11.84
2023-04-20T21:32:31.633Z,11.84
2023-04-20T21:34:58.731Z,11.92
2023-04-20T21:37:25.868Z,11.79
2023-04-20T21:39:53.005Z,12.03
2023-04-20T21:42:20.064Z,12.01
2023-04-20T21:44:47.220Z,11.93
2023-04-20T21:47:14.293Z,11.96
2023-04-20T21:49:41.336Z,11.84
2023-04-20T21:52:08.401Z,11.87
2023-04-20T21:54:35.919Z,11.93
2023-04-20T21:57:03.043Z,11.85
2023-04-20T21:59:30.156Z,11.92
2023-04-20T22:01:57.433Z,11.87
2023-04-20T22:04:28.372Z,11.61
2023-04-20T22:06:55.655Z,11.67
2023-04-20T22:09:24.281Z,11.67
2023-04-20T22:11:51.469Z,11.66
2023-04-20T22:14:18.567Z,11.70
2023-04-20T22:16:48.643Z,11.78
2023-04-20T22:19:16.341Z,11.78
2023-04-20T22:21:43.763Z,11.83
2023-04-20T22:24:11.000Z,11.88
2023-04-20T22:26:38.122Z,11.69
2023-04-20T22:29:05.258Z,11.54
2023-04-20T22:31:32.375Z,11.73
2023-04-20T22:33:59.478Z,12.08
2023-04-20T22:36:30.337Z,11.92
2023-04-20T22:38:57.424Z,11.67
2023-04-20T22:41:24.503Z,11.55
2023-04-20T22:43:51.571Z,11.42
2023-04-20T22:46:18.819Z,11.52
2023-04-20T22:48:48.403Z,11.63
2023-04-20T22:51:17.240Z,11.78
2023-04-20T22:53:45.109Z,11.78
2023-04-20T22:56:12.317Z,12.04
2023-04-20T22:58:39.569Z,11.83
2023-04-20T23:01:07.136Z,11.93
2023-04-20T23:03:34.433Z,11.93
2023-04-20T23:06:01.643Z,11.86
2023-04-20T23:08:29.504Z,11.86
2023-04-20T23:10:59.199Z,11.71
2023-04-20T23:13:28.224Z,11.81
2023-04-20T23:15:58.070Z,11.79
2023-04-20T23:18:25.229Z,11.17
2023-04-20T23:20:52.509Z,10.87
2023-04-20T23:23:19.812Z,10.75
2023-04-20T23:25:46.881Z,10.73
2023-04-20T23:28:13.916Z,10.86
2023-04-20T23:30:40.975Z,10.77
2023-04-20T23:33:08.452Z,10.62
2023-04-20T23:35:37.010Z,10.78
2023-04-20T23:38:04.612Z,10.82
2023-04-20T23:40:31.786Z,10.74
2023-04-20T23:42:58.891Z,10.75
2023-04-20T23:45:26.004Z,10.68
2023-04-20T23:47:53.145Z,10.76
2023-04-20T23:50:20.513Z,10.73
2023-04-20T23:52:47.627Z,10.69
2023-04-20T23:55:14.681Z,11.05
2023-04-20T23:57:41.706Z,11.03
